sensor_id;sensor_type;location;lat;lon;timestamp;temperature;humidity
40996;DHT22;26723;57.478;12.066;2022-10-23T00:01:44;10.40;99.90
40996;DHT22;26723;57.478;12.066;2022-10-23T00:04:52;10.40;99.90
40996;DHT22;26723;57.478;12.066;2022-10-23T00:08:01;10.40;99.90
40996;DHT22;26723;57.478;12.066;2022-10-23T00:11:10;10.40;99.90
40996;DHT22;26723;57.478;12.066;2022-10-23T00:14:21;10.40;99.90
40996;DHT22;26723;57.478;12.066;2022-10-23T00:17:31;10.40;99.90
40996;DHT22;26723;57.478;12.066;2022-10-23T00:20:41;10.40;99.90
40996;DHT22;26723;57.478;12.066;2022-10-23T00:23:49;10.50;99.90
40996;DHT22;26723;57.478;12.066;2022-10-23T00:26:57;10.50;99.90
40996;DHT22;26723;57.478;12.066;2022-10-23T00:30:06;10.50;99.90
40996;DHT22;26723;57.478;12.066;2022-10-23T00:33:16;10.50;99.90
40996;DHT22;26723;57.478;12.066;2022-10-23T00:36:25;10.50;99.90
40996;DHT22;26723;57.478;12.066;2022-10-23T00:39:34;10.50;99.90
40996;DHT22;26723;57.478;12.066;2022-10-23T00:42:42;10.50;99.90
40996;DHT22;26723;57.478;12.066;2022-10-23T00:45:51;10.50;99.90
40996;DHT22;26723;57.478;12.066;2022-10-23T00:49:02;10.50;99.90
40996;DHT22;26723;57.478;12.066;2022-10-23T00:52:12;10.50;99.90
40996;DHT22;26723;57.478;12.066;2022-10-23T00:55:22;10.50;99.90
40996;DHT22;26723;57.478;12.066;2022-10-23T00:58:31;10.50;99.90
40996;DHT22;26723;57.478;12.066;2022-10-23T01:01:40;10.60;99.90
40996;DHT22;26723;57.478;12.066;2022-10-23T01:04:49;10.50;99.90
40996;DHT22;26723;57.478;12.066;2022-10-23T01:08:01;10.50;99.90
40996;DHT22;26723;57.478;12.066;2022-10-23T01:11:17;10.60;99.90
40996;DHT22;26723;57.478;12.066;2022-10-23T01:14:31;10.60;99.90
40996;DHT22;26723;57.478;12.066;2022-10-23T01:17:47;10.60;99.90
40996;DHT22;26723;57.478;12.066;2022-10-23T01:21:02;10.60;99.90
40996;DHT22;26723;57.478;12.066;2022-10-23T01:24:20;10.60;99.90
40996;DHT22;26723;57.478;12.066;2022-10-23T01:27:38;10.60;99.90
40996;DHT22;26723;57.478;12.066;2022-10-23T01:30:48;10.60;99.90
40996;DHT22;26723;57.478;12.066;2022-10-23T01:34:01;10.60;99.90
40996;DHT22;26723;57.478;12.066;2022-10-23T01:37:13;10.60;99.90
40996;DHT22;26723;57.478;12.066;2022-10-23T01:40:29;10.60;99.90
40996;DHT22;26723;57.478;12.066;2022-10-23T01:43:44;10.60;99.90
40996;DHT22;26723;57.478;12.066;2022-10-23T01:46:56;10.60;99.90
40996;DHT22;26723;57.478;12.066;2022-10-23T01:50:09;10.60;99.90
40996;DHT22;26723;57.478;12.066;2022-10-23T01:53:25;10.60;99.90
40996;DHT22;26723;57.478;12.066;2022-10-23T01:56:38;10.60;99.90
40996;DHT22;26723;57.478;12.066;2022-10-23T01:59:54;10.60;99.90
40996;DHT22;26723;57.478;12.066;2022-10-23T02:03:03;10.60;99.90
40996;DHT22;26723;57.478;12.066;2022-10-23T02:06:13;10.60;99.90
40996;DHT22;26723;57.478;12.066;2022-10-23T02:09:22;10.60;99.90
40996;DHT22;26723;57.478;12.066;2022-10-23T02:12:41;10.60;99.90
40996;DHT22;26723;57.478;12.066;2022-10-23T02:16:00;10.60;99.90
40996;DHT22;26723;57.478;12.066;2022-10-23T02:19:18;10.60;99.90
40996;DHT22;26723;57.478;12.066;2022-10-23T02:22:30;10.60;99.90
40996;DHT22;26723;57.478;12.066;2022-10-23T02:25:49;10.60;99.90
40996;DHT22;26723;57.478;12.066;2022-10-23T02:29:04;10.60;99.90
40996;DHT22;26723;57.478;12.066;2022-10-23T02:32:18;10.60;99.90
40996;DHT22;26723;57.478;12.066;2022-10-23T02:35:27;10.60;99.90
40996;DHT22;26723;57.478;12.066;2022-10-23T02:38:45;10.60;99.90
40996;DHT22;26723;57.478;12.066;2022-10-23T02:41:56;10.70;99.90
40996;DHT22;26723;57.478;12.066;2022-10-23T02:45:10;10.70;99.90
40996;DHT22;26723;57.478;12.066;2022-10-23T02:48:24;10.70;99.90
40996;DHT22;26723;57.478;12.066;2022-10-23T02:51:53;10.70;99.90
40996;DHT22;26723;57.478;12.066;2022-10-23T02:55:16;10.70;99.90
40996;DHT22;26723;57.478;12.066;2022-10-23T02:58:33;10.80;99.90
40996;DHT22;26723;57.478;12.066;2022-10-23T03:01:48;10.80;99.90
40996;DHT22;26723;57.478;12.066;2022-10-23T03:04:59;10.80;99.90
40996;DHT22;26723;57.478;12.066;2022-10-23T03:08:12;10.80;99.90
40996;DHT22;26723;57.478;12.066;2022-10-23T03:11:21;10.80;99.90
40996;DHT22;26723;57.478;12.066;2022-10-23T03:14:29;10.80;99.90
40996;DHT22;26723;57.478;12.066;2022-10-23T03:17:38;10.80;99.90
40996;DHT22;26723;57.478;12.066;2022-10-23T03:20:47;10.80;99.90
40996;DHT22;26723;57.478;12.066;2022-10-23T03:23:56;10.90;99.90
40996;DHT22;26723;57.478;12.066;2022-10-23T03:27:13;10.90;99.90
40996;DHT22;26723;57.478;12.066;2022-10-23T03:30:22;10.90;99.90
40996;DHT22;26723;57.478;12.066;2022-10-23T03:33:33;10.90;99.90
40996;DHT22;26723;57.478;12.066;2022-10-23T03:36:48;10.90;99.90
40996;DHT22;26723;57.478;12.066;2022-10-23T03:39:59;10.90;99.90
40996;DHT22;26723;57.478;12.066;2022-10-23T03:43:10;11.00;99.90
40996;DHT22;26723;57.478;12.066;2022-10-23T03:46:18;11.00;99.90
40996;DHT22;26723;57.478;12.066;2022-10-23T03:49:29;11.00;99.90
40996;DHT22;26723;57.478;12.066;2022-10-23T03:52:44;11.00;99.90
40996;DHT22;26723;57.478;12.066;2022-10-23T03:55:52;11.10;99.90
40996;DHT22;26723;57.478;12.066;2022-10-23T03:59:01;11.10;99.90
40996;DHT22;26723;57.478;12.066;2022-10-23T04:02:09;11.10;99.90
40996;DHT22;26723;57.478;12.066;2022-10-23T04:05:17;11.20;99.90
40996;DHT22;26723;57.478;12.066;2022-10-23T04:08:36;11.20;99.90
40996;DHT22;26723;57.478;12.066;2022-10-23T04:11:51;11.20;99.90
40996;DHT22;26723;57.478;12.066;2022-10-23T04:15:06;11.30;99.90
40996;DHT22;26723;57.478;12.066;2022-10-23T04:18:15;11.30;99.90
40996;DHT22;26723;57.478;12.066;2022-10-23T04:21:25;11.20;99.90
40996;DHT22;26723;57.478;12.066;2022-10-23T04:24:35;11.30;99.90
40996;DHT22;26723;57.478;12.066;2022-10-23T04:27:45;11.30;99.90
40996;DHT22;26723;57.478;12.066;2022-10-23T04:30:53;11.30;99.90
40996;DHT22;26723;57.478;12.066;2022-10-23T04:34:01;11.40;99.90
40996;DHT22;26723;57.478;12.066;2022-10-23T04:37:11;11.40;99.90
40996;DHT22;26723;57.478;12.066;2022-10-23T04:40:20;11.40;99.90
40996;DHT22;26723;57.478;12.066;2022-10-23T04:43:31;11.40;99.90
40996;DHT22;26723;57.478;12.066;2022-10-23T04:46:42;11.40;99.90
40996;DHT22;26723;57.478;12.066;2022-10-23T04:49:50;11.40;99.90
40996;DHT22;26723;57.478;12.066;2022-10-23T04:53:21;11.40;99.90
40996;DHT22;26723;57.478;12.066;2022-10-23T04:56:49;11.40;99.90
40996;DHT22;26723;57.478;12.066;2022-10-23T05:00:00;11.70;99.90
40996;DHT22;26723;57.478;12.066;2022-10-23T05:03:16;11.80;99.90
40996;DHT22;26723;57.478;12.066;2022-10-23T05:06:24;12.00;99.90
40996;DHT22;26723;57.478;12.066;2022-10-23T05:09:53;12.10;99.90
40996;DHT22;26723;57.478;12.066;2022-10-23T05:13:20;12.20;99.90
40996;DHT22;26723;57.478;12.066;2022-10-23T05:16:35;12.20;99.90
40996;DHT22;26723;57.478;12.066;2022-10-23T05:19:46;12.20;99.90
40996;DHT22;26723;57.478;12.066;2022-10-23T05:22:57;12.30;99.90
40996;DHT22;26723;57.478;12.066;2022-10-23T05:26:07;12.30;99.90
40996;DHT22;26723;57.478;12.066;2022-10-23T05:29:19;12.30;99.90
40996;DHT22;26723;57.478;12.066;2022-10-23T05:32:30;12.30;99.90
40996;DHT22;26723;57.478;12.066;2022-10-23T05:35:40;12.30;99.90
40996;DHT22;26723;57.478;12.066;2022-10-23T05:38:50;12.30;99.90
40996;DHT22;26723;57.478;12.066;2022-10-23T05:42:00;12.30;99.90
40996;DHT22;26723;57.478;12.066;2022-10-23T05:45:10;12.30;99.90
40996;DHT22;26723;57.478;12.066;2022-10-23T05:48:37;12.30;99.90
40996;DHT22;26723;57.478;12.066;2022-10-23T05:52:03;12.30;99.90
40996;DHT22;26723;57.478;12.066;2022-10-23T05:55:20;12.30;99.90
40996;DHT22;26723;57.478;12.066;2022-10-23T05:58:47;12.30;99.90
40996;DHT22;26723;57.478;12.066;2022-10-23T06:02:19;12.30;99.90
40996;DHT22;26723;57.478;12.066;2022-10-23T06:05:36;12.30;99.90
40996;DHT22;26723;57.478;12.066;2022-10-23T06:08:57;12.30;99.90
40996;DHT22;26723;57.478;12.066;2022-10-23T06:12:05;12.30;99.90
40996;DHT22;26723;57.478;12.066;2022-10-23T06:15:14;12.30;99.90
40996;DHT22;26723;57.478;12.066;2022-10-23T06:18:36;12.30;99.90
40996;DHT22;26723;57.478;12.066;2022-10-23T06:21:50;12.30;99.90
40996;DHT22;26723;57.478;12.066;2022-10-23T06:25:04;12.30;99.90
40996;DHT22;26723;57.478;12.066;2022-10-23T06:28:13;12.30;99.90
40996;DHT22;26723;57.478;12.066;2022-10-23T06:31:26;12.30;99.90
40996;DHT22;26723;57.478;12.066;2022-10-23T06:34:38;12.30;99.90
40996;DHT22;26723;57.478;12.066;2022-10-23T06:37:47;12.30;99.90
40996;DHT22;26723;57.478;12.066;2022-10-23T06:41:10;12.30;99.90
40996;DHT22;26723;57.478;12.066;2022-10-23T06:44:20;12.30;99.90
40996;DHT22;26723;57.478;12.066;2022-10-23T06:47:33;12.30;99.90
40996;DHT22;26723;57.478;12.066;2022-10-23T06:51:04;12.40;99.90
40996;DHT22;26723;57.478;12.066;2022-10-23T06:54:19;12.40;99.90
40996;DHT22;26723;57.478;12.066;2022-10-23T06:57:27;12.40;99.90
40996;DHT22;26723;57.478;12.066;2022-10-23T07:00:36;12.40;99.90
40996;DHT22;26723;57.478;12.066;2022-10-23T07:03:47;12.40;99.90
40996;DHT22;26723;57.478;12.066;2022-10-23T07:07:01;12.40;99.90
40996;DHT22;26723;57.478;12.066;2022-10-23T07:10:18;12.40;99.90
40996;DHT22;26723;57.478;12.066;2022-10-23T07:13:34;12.40;99.90
40996;DHT22;26723;57.478;12.066;2022-10-23T07:17:09;12.40;99.90
40996;DHT22;26723;57.478;12.066;2022-10-23T07:20:17;12.40;99.90
40996;DHT22;26723;57.478;12.066;2022-10-23T07:23:29;12.40;99.90
40996;DHT22;26723;57.478;12.066;2022-10-23T07:26:37;12.40;99.90
40996;DHT22;26723;57.478;12.066;2022-10-23T07:29:49;12.40;99.90
40996;DHT22;26723;57.478;12.066;2022-10-23T07:32:58;12.40;99.90
40996;DHT22;26723;57.478;12.066;2022-10-23T07:36:34;12.50;99.90
40996;DHT22;26723;57.478;12.066;2022-10-23T07:39:44;12.50;99.90
40996;DHT22;26723;57.478;12.066;2022-10-23T07:42:52;12.50;99.90
40996;DHT22;26723;57.478;12.066;2022-10-23T07:46:01;12.50;99.90
40996;DHT22;26723;57.478;12.066;2022-10-23T07:49:16;12.50;99.90
40996;DHT22;26723;57.478;12.066;2022-10-23T07:52:25;12.50;99.90
40996;DHT22;26723;57.478;12.066;2022-10-23T07:56:03;12.50;99.90
40996;DHT22;26723;57.478;12.066;2022-10-23T07:59:32;12.50;99.90
40996;DHT22;26723;57.478;12.066;2022-10-23T08:02:47;12.40;99.90
40996;DHT22;26723;57.478;12.066;2022-10-23T08:05:56;12.50;99.90
40996;DHT22;26723;57.478;12.066;2022-10-23T08:09:05;12.40;99.90
40996;DHT22;26723;57.478;12.066;2022-10-23T08:12:18;12.40;99.90
40996;DHT22;26723;57.478;12.066;2022-10-23T08:15:27;12.40;99.90
40996;DHT22;26723;57.478;12.066;2022-10-23T08:18:41;12.40;99.90
40996;DHT22;26723;57.478;12.066;2022-10-23T08:21:51;12.40;99.90
40996;DHT22;26723;57.478;12.066;2022-10-23T08:25:00;12.40;99.90
40996;DHT22;26723;57.478;12.066;2022-10-23T08:28:11;12.40;99.90
40996;DHT22;26723;57.478;12.066;2022-10-23T08:31:29;12.40;99.90
40996;DHT22;26723;57.478;12.066;2022-10-23T08:34:51;12.40;99.90
40996;DHT22;26723;57.478;12.066;2022-10-23T08:38:02;12.40;99.90
40996;DHT22;26723;57.478;12.066;2022-10-23T08:41:23;12.40;99.90
40996;DHT22;26723;57.478;12.066;2022-10-23T08:44:52;12.50;99.90
40996;DHT22;26723;57.478;12.066;2022-10-23T08:48:09;12.50;99.90
40996;DHT22;26723;57.478;12.066;2022-10-23T08:52:04;12.50;99.90
40996;DHT22;26723;57.478;12.066;2022-10-23T08:55:22;12.50;99.90
40996;DHT22;26723;57.478;12.066;2022-10-23T08:58:36;12.50;99.90
40996;DHT22;26723;57.478;12.066;2022-10-23T09:01:50;12.50;99.90
40996;DHT22;26723;57.478;12.066;2022-10-23T09:05:03;12.50;99.90
40996;DHT22;26723;57.478;12.066;2022-10-23T09:08:22;12.50;99.90
40996;DHT22;26723;57.478;12.066;2022-10-23T09:11:37;12.60;99.90
40996;DHT22;26723;57.478;12.066;2022-10-23T09:15:03;12.60;99.90
40996;DHT22;26723;57.478;12.066;2022-10-23T09:18:16;12.60;99.90
40996;DHT22;26723;57.478;12.066;2022-10-23T09:21:25;12.70;99.90
40996;DHT22;26723;57.478;12.066;2022-10-23T09:24:34;12.70;99.90
40996;DHT22;26723;57.478;12.066;2022-10-23T09:27:46;12.80;99.90
40996;DHT22;26723;57.478;12.066;2022-10-23T09:31:06;12.80;99.90
40996;DHT22;26723;57.478;12.066;2022-10-23T09:34:19;12.80;99.90
40996;DHT22;26723;57.478;12.066;2022-10-23T09:37:29;12.80;99.90
40996;DHT22;26723;57.478;12.066;2022-10-23T09:40:40;12.80;99.90
40996;DHT22;26723;57.478;12.066;2022-10-23T09:44:00;12.80;99.90
40996;DHT22;26723;57.478;12.066;2022-10-23T09:47:10;12.80;99.90
40996;DHT22;26723;57.478;12.066;2022-10-23T09:50:20;12.80;99.90
40996;DHT22;26723;57.478;12.066;2022-10-23T09:53:32;12.90;99.90
40996;DHT22;26723;57.478;12.066;2022-10-23T09:56:46;12.90;99.90
40996;DHT22;26723;57.478;12.066;2022-10-23T09:59:57;12.90;99.90
40996;DHT22;26723;57.478;12.066;2022-10-23T10:03:19;13.00;99.90
40996;DHT22;26723;57.478;12.066;2022-10-23T10:06:41;12.90;99.90
40996;DHT22;26723;57.478;12.066;2022-10-23T10:09:51;12.90;99.90
40996;DHT22;26723;57.478;12.066;2022-10-23T10:13:03;12.80;99.90
40996;DHT22;26723;57.478;12.066;2022-10-23T10:16:26;12.80;99.90
40996;DHT22;26723;57.478;12.066;2022-10-23T10:19:48;12.90;99.90
40996;DHT22;26723;57.478;12.066;2022-10-23T10:23:05;12.80;99.90
40996;DHT22;26723;57.478;12.066;2022-10-23T10:26:22;12.80;99.90
40996;DHT22;26723;57.478;12.066;2022-10-23T10:29:44;12.80;99.90
40996;DHT22;26723;57.478;12.066;2022-10-23T10:33:01;12.80;99.90
40996;DHT22;26723;57.478;12.066;2022-10-23T10:36:18;12.80;99.90
40996;DHT22;26723;57.478;12.066;2022-10-23T10:39:39;12.90;99.90
40996;DHT22;26723;57.478;12.066;2022-10-23T10:43:08;12.90;99.90
40996;DHT22;26723;57.478;12.066;2022-10-23T10:46:21;13.00;99.90
40996;DHT22;26723;57.478;12.066;2022-10-23T10:49:34;13.10;99.90
40996;DHT22;26723;57.478;12.066;2022-10-23T10:53:25;13.20;99.90
40996;DHT22;26723;57.478;12.066;2022-10-23T10:56:39;13.20;99.90
40996;DHT22;26723;57.478;12.066;2022-10-23T10:59:50;13.30;99.90
40996;DHT22;26723;57.478;12.066;2022-10-23T11:03:04;13.40;99.90
40996;DHT22;26723;57.478;12.066;2022-10-23T11:06:19;13.40;99.90
40996;DHT22;26723;57.478;12.066;2022-10-23T11:09:29;13.30;99.90
40996;DHT22;26723;57.478;12.066;2022-10-23T11:12:40;13.30;99.90
40996;DHT22;26723;57.478;12.066;2022-10-23T11:15:50;13.30;99.90
40996;DHT22;26723;57.478;12.066;2022-10-23T11:19:07;13.40;99.90
40996;DHT22;26723;57.478;12.066;2022-10-23T11:22:23;13.50;99.90
40996;DHT22;26723;57.478;12.066;2022-10-23T11:25:52;13.40;99.90
40996;DHT22;26723;57.478;12.066;2022-10-23T11:36:41;13.40;99.90
40996;DHT22;26723;57.478;12.066;2022-10-23T11:39:59;13.30;99.90
40996;DHT22;26723;57.478;12.066;2022-10-23T11:43:09;13.40;99.90
40996;DHT22;26723;57.478;12.066;2022-10-23T11:46:31;13.30;99.90
40996;DHT22;26723;57.478;12.066;2022-10-23T11:49:42;13.30;99.90
40996;DHT22;26723;57.478;12.066;2022-10-23T11:53:02;13.20;99.90
40996;DHT22;26723;57.478;12.066;2022-10-23T11:56:26;13.20;99.90
40996;DHT22;26723;57.478;12.066;2022-10-23T11:59:49;13.20;99.90
40996;DHT22;26723;57.478;12.066;2022-10-23T12:02:59;13.20;99.90
40996;DHT22;26723;57.478;12.066;2022-10-23T12:06:20;13.30;99.90
40996;DHT22;26723;57.478;12.066;2022-10-23T12:09:35;13.30;99.90
40996;DHT22;26723;57.478;12.066;2022-10-23T12:12:55;13.20;99.90
40996;DHT22;26723;57.478;12.066;2022-10-23T12:16:04;13.20;99.90
40996;DHT22;26723;57.478;12.066;2022-10-23T12:19:19;13.20;99.90
40996;DHT22;26723;57.478;12.066;2022-10-23T12:22:37;13.20;99.90
40996;DHT22;26723;57.478;12.066;2022-10-23T12:25:58;13.10;99.90
40996;DHT22;26723;57.478;12.066;2022-10-23T12:29:19;13.20;99.90
40996;DHT22;26723;57.478;12.066;2022-10-23T12:32:57;13.20;99.90
40996;DHT22;26723;57.478;12.066;2022-10-23T12:36:20;13.20;99.90
40996;DHT22;26723;57.478;12.066;2022-10-23T12:39:34;13.10;99.90
40996;DHT22;26723;57.478;12.066;2022-10-23T12:42:48;13.10;99.90
40996;DHT22;26723;57.478;12.066;2022-10-23T12:46:02;13.10;99.90
40996;DHT22;26723;57.478;12.066;2022-10-23T12:49:14;13.10;99.90
40996;DHT22;26723;57.478;12.066;2022-10-23T12:52:23;13.20;99.90
40996;DHT22;26723;57.478;12.066;2022-10-23T12:55:47;13.20;99.90
40996;DHT22;26723;57.478;12.066;2022-10-23T12:58:58;13.30;99.90
40996;DHT22;26723;57.478;12.066;2022-10-23T13:02:13;13.30;99.90
40996;DHT22;26723;57.478;12.066;2022-10-23T13:05:22;13.20;99.90
40996;DHT22;26723;57.478;12.066;2022-10-23T13:08:32;13.20;99.90
40996;DHT22;26723;57.478;12.066;2022-10-23T13:12:05;13.20;99.90
40996;DHT22;26723;57.478;12.066;2022-10-23T13:15:18;13.20;99.90
40996;DHT22;26723;57.478;12.066;2022-10-23T13:18:26;13.20;99.90
40996;DHT22;26723;57.478;12.066;2022-10-23T13:21:35;13.20;99.90
40996;DHT22;26723;57.478;12.066;2022-10-23T13:24:43;13.20;99.90
40996;DHT22;26723;57.478;12.066;2022-10-23T13:28:10;13.20;99.90
40996;DHT22;26723;57.478;12.066;2022-10-23T13:31:28;13.20;99.90
40996;DHT22;26723;57.478;12.066;2022-10-23T13:34:37;13.20;99.90
40996;DHT22;26723;57.478;12.066;2022-10-23T13:37:45;13.10;99.90
40996;DHT22;26723;57.478;12.066;2022-10-23T13:40:55;13.10;99.90
40996;DHT22;26723;57.478;12.066;2022-10-23T13:44:06;13.00;99.90
40996;DHT22;26723;57.478;12.066;2022-10-23T13:47:15;13.00;99.90
40996;DHT22;26723;57.478;12.066;2022-10-23T13:50:24;13.00;99.90
40996;DHT22;26723;57.478;12.066;2022-10-23T13:53:32;13.00;99.90
40996;DHT22;26723;57.478;12.066;2022-10-23T13:56:40;13.00;99.90
40996;DHT22;26723;57.478;12.066;2022-10-23T13:59:50;12.90;99.90
40996;DHT22;26723;57.478;12.066;2022-10-23T14:02:59;12.90;99.90
40996;DHT22;26723;57.478;12.066;2022-10-23T14:06:07;12.90;99.90
40996;DHT22;26723;57.478;12.066;2022-10-23T14:09:17;12.90;99.90
40996;DHT22;26723;57.478;12.066;2022-10-23T14:12:25;12.80;99.90
40996;DHT22;26723;57.478;12.066;2022-10-23T14:15:35;12.80;99.90
40996;DHT22;26723;57.478;12.066;2022-10-23T14:18:43;12.80;99.90
40996;DHT22;26723;57.478;12.066;2022-10-23T14:21:52;12.80;99.90
40996;DHT22;26723;57.478;12.066;2022-10-23T14:25:00;12.90;99.90
40996;DHT22;26723;57.478;12.066;2022-10-23T14:28:08;12.80;99.90
40996;DHT22;26723;57.478;12.066;2022-10-23T14:31:18;12.80;99.90
40996;DHT22;26723;57.478;12.066;2022-10-23T14:34:27;12.80;99.90
40996;DHT22;26723;57.478;12.066;2022-10-23T14:37:35;12.70;99.90
40996;DHT22;26723;57.478;12.066;2022-10-23T14:40:45;12.70;99.90
40996;DHT22;26723;57.478;12.066;2022-10-23T14:43:54;12.70;99.90
40996;DHT22;26723;57.478;12.066;2022-10-23T14:47:04;12.60;99.90
40996;DHT22;26723;57.478;12.066;2022-10-23T14:50:13;12.60;99.90
40996;DHT22;26723;57.478;12.066;2022-10-23T14:53:22;12.60;99.90
40996;DHT22;26723;57.478;12.066;2022-10-23T14:56:32;12.60;99.90
40996;DHT22;26723;57.478;12.066;2022-10-23T14:59:41;12.60;99.90
40996;DHT22;26723;57.478;12.066;2022-10-23T15:02:51;12.50;99.90
40996;DHT22;26723;57.478;12.066;2022-10-23T15:05:59;12.50;99.90
40996;DHT22;26723;57.478;12.066;2022-10-23T15:09:08;12.50;99.90
40996;DHT22;26723;57.478;12.066;2022-10-23T15:12:17;12.40;99.90
40996;DHT22;26723;57.478;12.066;2022-10-23T15:15:25;12.40;99.90
40996;DHT22;26723;57.478;12.066;2022-10-23T15:18:36;12.40;99.90
40996;DHT22;26723;57.478;12.066;2022-10-23T15:21:49;12.40;99.90
40996;DHT22;26723;57.478;12.066;2022-10-23T15:24:58;12.40;99.90
40996;DHT22;26723;57.478;12.066;2022-10-23T15:28:06;12.30;99.90
40996;DHT22;26723;57.478;12.066;2022-10-23T15:31:44;12.30;99.90
40996;DHT22;26723;57.478;12.066;2022-10-23T15:34:54;12.30;99.90
40996;DHT22;26723;57.478;12.066;2022-10-23T15:38:04;12.20;99.90
40996;DHT22;26723;57.478;12.066;2022-10-23T15:41:13;12.30;99.90
40996;DHT22;26723;57.478;12.066;2022-10-23T15:44:24;12.30;99.90
40996;DHT22;26723;57.478;12.066;2022-10-23T15:47:33;12.20;99.90
40996;DHT22;26723;57.478;12.066;2022-10-23T15:50:43;12.30;99.90
40996;DHT22;26723;57.478;12.066;2022-10-23T15:53:51;12.30;99.90
40996;DHT22;26723;57.478;12.066;2022-10-23T15:57:00;12.20;99.90
40996;DHT22;26723;57.478;12.066;2022-10-23T16:00:09;12.20;99.90
40996;DHT22;26723;57.478;12.066;2022-10-23T16:03:24;12.20;99.90
40996;DHT22;26723;57.478;12.066;2022-10-23T16:06:34;12.20;99.90
40996;DHT22;26723;57.478;12.066;2022-10-23T16:09:42;12.20;99.90
40996;DHT22;26723;57.478;12.066;2022-10-23T16:12:50;12.20;99.90
40996;DHT22;26723;57.478;12.066;2022-10-23T16:16:01;12.10;99.90
40996;DHT22;26723;57.478;12.066;2022-10-23T16:19:11;12.10;99.90
40996;DHT22;26723;57.478;12.066;2022-10-23T16:22:21;12.10;99.90
40996;DHT22;26723;57.478;12.066;2022-10-23T16:25:29;12.10;99.90
40996;DHT22;26723;57.478;12.066;2022-10-23T16:28:42;12.00;99.90
40996;DHT22;26723;57.478;12.066;2022-10-23T16:31:53;12.00;99.90
40996;DHT22;26723;57.478;12.066;2022-10-23T16:35:03;12.00;99.90
40996;DHT22;26723;57.478;12.066;2022-10-23T16:38:31;12.00;99.90
40996;DHT22;26723;57.478;12.066;2022-10-23T16:41:39;12.00;99.90
40996;DHT22;26723;57.478;12.066;2022-10-23T16:44:56;11.90;99.90
40996;DHT22;26723;57.478;12.066;2022-10-23T16:48:04;11.90;99.90
40996;DHT22;26723;57.478;12.066;2022-10-23T16:51:14;11.90;99.90
40996;DHT22;26723;57.478;12.066;2022-10-23T16:54:24;11.90;99.90
40996;DHT22;26723;57.478;12.066;2022-10-23T16:57:33;11.90;99.90
40996;DHT22;26723;57.478;12.066;2022-10-23T17:00:42;11.90;99.90
40996;DHT22;26723;57.478;12.066;2022-10-23T17:03:51;11.90;99.90
40996;DHT22;26723;57.478;12.066;2022-10-23T17:07:00;11.90;99.90
40996;DHT22;26723;57.478;12.066;2022-10-23T17:10:11;11.90;99.90
40996;DHT22;26723;57.478;12.066;2022-10-23T17:13:19;11.80;99.90
40996;DHT22;26723;57.478;12.066;2022-10-23T17:16:29;11.80;99.90
40996;DHT22;26723;57.478;12.066;2022-10-23T17:19:38;11.80;99.90
40996;DHT22;26723;57.478;12.066;2022-10-23T17:22:52;11.80;99.90
40996;DHT22;26723;57.478;12.066;2022-10-23T17:26:04;11.70;99.90
40996;DHT22;26723;57.478;12.066;2022-10-23T17:29:14;11.80;99.90
40996;DHT22;26723;57.478;12.066;2022-10-23T17:32:23;11.70;99.90
40996;DHT22;26723;57.478;12.066;2022-10-23T17:35:31;11.70;99.90
40996;DHT22;26723;57.478;12.066;2022-10-23T17:38:40;11.60;99.90
40996;DHT22;26723;57.478;12.066;2022-10-23T17:41:51;11.60;99.90
40996;DHT22;26723;57.478;12.066;2022-10-23T17:44:59;11.60;99.90
40996;DHT22;26723;57.478;12.066;2022-10-23T17:48:08;11.60;99.90
40996;DHT22;26723;57.478;12.066;2022-10-23T17:51:19;11.50;99.90
40996;DHT22;26723;57.478;12.066;2022-10-23T17:54:27;11.50;99.90
40996;DHT22;26723;57.478;12.066;2022-10-23T17:57:37;11.50;99.90
40996;DHT22;26723;57.478;12.066;2022-10-23T18:00:45;11.50;99.90
40996;DHT22;26723;57.478;12.066;2022-10-23T18:03:55;11.40;99.90
40996;DHT22;26723;57.478;12.066;2022-10-23T18:07:03;11.40;99.90
40996;DHT22;26723;57.478;12.066;2022-10-23T18:10:12;11.40;99.90
40996;DHT22;26723;57.478;12.066;2022-10-23T18:13:21;11.30;99.90
40996;DHT22;26723;57.478;12.066;2022-10-23T18:16:30;11.40;99.90
40996;DHT22;26723;57.478;12.066;2022-10-23T18:19:38;11.30;99.90
40996;DHT22;26723;57.478;12.066;2022-10-23T18:22:47;11.30;99.90
40996;DHT22;26723;57.478;12.066;2022-10-23T18:25:56;11.40;99.90
40996;DHT22;26723;57.478;12.066;2022-10-23T18:29:06;11.40;99.90
40996;DHT22;26723;57.478;12.066;2022-10-23T18:32:15;11.40;99.90
40996;DHT22;26723;57.478;12.066;2022-10-23T18:35:24;11.40;99.90
40996;DHT22;26723;57.478;12.066;2022-10-23T18:38:32;11.40;99.90
40996;DHT22;26723;57.478;12.066;2022-10-23T18:41:43;11.40;99.90
40996;DHT22;26723;57.478;12.066;2022-10-23T18:44:53;11.40;99.90
40996;DHT22;26723;57.478;12.066;2022-10-23T18:48:02;11.40;99.90
40996;DHT22;26723;57.478;12.066;2022-10-23T18:51:14;11.40;99.90
40996;DHT22;26723;57.478;12.066;2022-10-23T18:54:23;11.30;99.90
40996;DHT22;26723;57.478;12.066;2022-10-23T18:57:32;11.30;99.90
40996;DHT22;26723;57.478;12.066;2022-10-23T19:00:42;11.30;99.90
40996;DHT22;26723;57.478;12.066;2022-10-23T19:03:50;11.30;99.90
40996;DHT22;26723;57.478;12.066;2022-10-23T19:06:59;11.20;99.90
40996;DHT22;26723;57.478;12.066;2022-10-23T19:10:07;11.30;99.90
40996;DHT22;26723;57.478;12.066;2022-10-23T19:13:19;11.30;99.90
40996;DHT22;26723;57.478;12.066;2022-10-23T19:16:32;11.30;99.90
40996;DHT22;26723;57.478;12.066;2022-10-23T19:19:44;11.30;99.90
40996;DHT22;26723;57.478;12.066;2022-10-23T19:22:54;11.30;99.90
40996;DHT22;26723;57.478;12.066;2022-10-23T19:26:04;11.30;99.90
40996;DHT22;26723;57.478;12.066;2022-10-23T19:29:18;11.30;99.90
40996;DHT22;26723;57.478;12.066;2022-10-23T19:32:29;11.30;99.90
40996;DHT22;26723;57.478;12.066;2022-10-23T19:35:37;11.30;99.90
40996;DHT22;26723;57.478;12.066;2022-10-23T19:38:46;11.30;99.90
40996;DHT22;26723;57.478;12.066;2022-10-23T19:41:54;11.30;99.90
40996;DHT22;26723;57.478;12.066;2022-10-23T19:45:04;11.20;99.90
40996;DHT22;26723;57.478;12.066;2022-10-23T19:48:14;11.20;99.90
40996;DHT22;26723;57.478;12.066;2022-10-23T19:51:22;11.20;99.90
40996;DHT22;26723;57.478;12.066;2022-10-23T19:54:30;11.20;99.90
40996;DHT22;26723;57.478;12.066;2022-10-23T19:57:40;11.20;99.90
40996;DHT22;26723;57.478;12.066;2022-10-23T20:00:49;11.20;99.90
40996;DHT22;26723;57.478;12.066;2022-10-23T20:03:59;11.20;99.90
40996;DHT22;26723;57.478;12.066;2022-10-23T20:07:07;11.10;99.90